Time;durP1;ratioP1;P1;durP2;ratioP2;P2;SDS_P1;SDS_P2;PMS_P1;PMS_P2;Temp;Humidity;BMP_temperature;BMP_pressure;BME280_temperature;BME280_humidity;BME280_pressure;Samples;Min_cycle;Max_cycle;Signal;HPM_P1;HPM_P2
2022/06/14 00:03:17;;;;;;;11.00;9.60;;;;;;;18.93;77.55;96928.47;5048324;28;20685;-71
2022/06/14 00:05:45;;;;;;;13.20;9.77;;;;;;;19.02;76.50;96913.78;5028548;28;20198;-71
2022/06/14 00:08:12;;;;;;;10.57;9.50;;;;;;;19.08;76.18;96914.09;5047949;28;20197;-71
2022/06/14 00:10:40;;;;;;;10.70;9.47;;;;;;;19.23;75.35;96920.72;5046585;28;20626;-71
2022/06/14 00:13:08;;;;;;;10.53;9.43;;;;;;;19.31;75.44;96922.72;5047870;28;20185;-71
2022/06/14 00:15:35;;;;;;;10.63;9.53;;;;;;;19.26;74.32;96919.66;5029924;28;20247;-71
2022/06/14 00:18:02;;;;;;;12.37;9.83;;;;;;;19.35;73.85;96909.25;5028759;28;20232;-71
2022/06/14 00:20:30;;;;;;;11.13;9.13;;;;;;;19.34;73.54;96907.59;5047968;28;20195;-71
2022/06/14 00:22:57;;;;;;;10.13;9.00;;;;;;;19.48;72.99;96915.16;5046350;28;20192;-71
2022/06/14 00:25:39;;;;;;;13.80;9.57;;;;;;;19.65;72.96;96910.28;5047798;28;20677;-71
2022/06/14 00:28:08;;;;;;;11.70;10.17;;;;;;;19.84;72.07;96897.25;5046735;28;20674;-71
2022/06/14 00:30:37;;;;;;;10.73;9.40;;;;;;;19.71;72.07;96902.72;5047463;28;20875;-72
2022/06/14 00:33:04;;;;;;;10.03;8.90;;;;;;;19.80;72.08;96907.22;5030169;28;20227;-71
2022/06/14 00:35:32;;;;;;;12.77;9.90;;;;;;;19.51;72.68;96914.06;5046407;28;20259;-71
2022/06/14 00:38:00;;;;;;;14.27;9.63;;;;;;;19.55;73.17;96910.22;5048070;28;20192;-71
2022/06/14 00:40:30;;;;;;;12.93;10.23;;;;;;;19.40;73.14;96903.63;5046394;28;20250;-71
2022/06/14 00:43:02;;;;;;;12.90;9.27;;;;;;;19.33;73.41;96905.91;5047866;28;20192;-71
2022/06/14 00:45:29;;;;;;;12.80;10.13;;;;;;;19.31;73.48;96907.78;5046939;28;20274;-71
2022/06/14 00:48:19;;;;;;;18.23;10.60;;;;;;;19.04;74.44;96914.50;5029703;28;20189;-71
2022/06/14 00:51:07;;;;;;;16.47;10.43;;;;;;;18.75;75.99;96919.47;5047963;28;20719;-71
2022/06/14 00:53:37;;;;;;;11.03;9.87;;;;;;;18.62;76.20;96916.16;5046219;28;20199;-71
2022/06/14 00:56:28;;;;;;;12.50;9.97;;;;;;;18.53;77.45;96909.00;5047520;28;20224;-72
2022/06/14 00:59:04;;;;;;;11.67;10.47;;;;;;;18.46;77.89;96915.72;5047618;28;20184;-72
2022/06/14 01:01:36;;;;;;;13.13;10.57;;;;;;;18.47;78.05;96912.94;5046002;28;20193;-72
2022/06/14 01:04:14;;;;;;;14.63;10.80;;;;;;;18.41;78.53;96913.41;5047737;28;20189;-71
2022/06/14 01:06:50;;;;;;;16.77;10.60;;;;;;;18.40;78.21;96924.03;5046066;28;20286;-71
2022/06/14 01:09:35;;;;;;;13.57;10.70;;;;;;;18.32;78.10;96921.19;5047228;28;20244;-71
2022/06/14 01:12:14;;;;;;;13.37;10.53;;;;;;;18.22;78.31;96917.56;5047768;28;20203;-72
2022/06/14 01:15:05;;;;;;;12.90;9.47;;;;;;;18.23;78.09;96916.63;5045913;28;20218;-72
2022/06/14 01:17:41;;;;;;;12.43;9.80;;;;;;;18.27;77.65;96902.34;5047337;28;20257;-72
2022/06/14 01:20:11;;;;;;;12.13;10.07;;;;;;;18.37;77.04;96905.91;5028989;28;20186;-72
2022/06/14 01:22:38;;;;;;;15.40;10.30;;;;;;;18.48;76.25;96903.31;5046309;28;20228;-72
2022/06/14 01:25:07;;;;;;;12.70;10.23;;;;;;;18.49;75.58;96902.34;5050076;28;20319;-72
2022/06/14 01:27:37;;;;;;;12.13;9.87;;;;;;;18.61;75.37;96896.09;5049652;28;20219;-71
2022/06/14 01:30:14;;;;;;;13.93;10.30;;;;;;;18.78;74.47;96892.13;5033548;28;20284;-71
2022/06/14 01:32:59;;;;;;;12.37;10.10;;;;;;;18.73;74.21;96897.78;5050093;28;20604;-72
2022/06/14 01:35:32;;;;;;;15.50;10.20;;;;;;;18.82;74.80;96893.56;5050329;28;20196;-72
2022/06/14 01:38:02;;;;;;;12.13;9.93;;;;;;;18.87;74.62;96900.13;5051623;28;20607;-71
2022/06/14 01:40:40;;;;;;;13.80;10.53;;;;;;;18.89;74.63;96889.47;5049525;28;20196;-72
2022/06/14 01:43:44;;;;;;;11.20;9.13;;;;;;;18.80;74.66;96896.31;5051448;28;20215;-71
2022/06/14 01:46:21;;;;;;;10.63;9.53;;;;;;;18.56;75.57;96887.78;5032874;28;20204;-71
2022/06/14 01:52:26;;;;;;;10.70;9.57;;;;;;;18.91;74.38;96885.78;5049243;28;20213;-71
2022/06/14 01:55:17;;;;;;;11.60;9.77;;;;;;;18.88;74.32;96890.44;5050791;28;20278;-71
2022/06/14 01:57:50;;;;;;;11.80;9.33;;;;;;;18.74;74.85;96896.81;5014669;28;20230;-71
2022/06/14 02:00:48;;;;;;;11.30;9.30;;;;;;;18.78;74.69;96887.72;5050874;28;20696;-71
2022/06/14 02:07:05;;;;;;;13.50;9.77;;;;;;;18.61;75.17;96896.94;5049206;28;20193;-71
2022/06/14 02:09:52;;;;;;;11.60;9.67;;;;;;;18.63;74.99;96900.28;5030932;28;20233;-72
2022/06/14 02:12:34;;;;;;;12.87;9.60;;;;;;;18.50;75.36;96909.25;5050710;28;20733;-72
2022/06/14 02:15:16;;;;;;;10.80;9.70;;;;;;;18.38;75.95;96899.72;5048931;28;20694;-72
2022/06/14 02:18:00;;;;;;;12.10;10.20;;;;;;;18.51;75.67;96903.88;5050371;28;20654;-72
2022/06/14 02:20:43;;;;;;;10.80;9.10;;;;;;;18.44;76.33;96901.88;5049990;28;20732;-71
2022/06/14 02:23:10;;;;;;;11.27;9.37;;;;;;;18.49;76.05;96903.19;5031196;28;20287;-71
2022/06/14 02:26:04;;;;;;;11.23;9.40;;;;;;;18.55;75.87;96910.56;5032153;28;20281;-71
2022/06/14 02:28:41;;;;;;;11.37;10.17;;;;;;;18.49;75.92;96912.81;5029568;28;20230;-71
2022/06/14 02:31:22;;;;;;;17.10;10.17;;;;;;;18.28;76.92;96919.75;5049987;28;20188;-71
2022/06/14 02:33:56;;;;;;;12.97;9.77;;;;;;;18.25;77.02;96910.34;5050315;28;20245;-71
2022/06/14 02:36:39;;;;;;;13.27;9.87;;;;;;;18.30;77.38;96905.53;5047013;28;20788;-72
2022/06/14 02:39:16;;;;;;;12.10;10.57;;;;;;;18.37;76.79;96905.91;5049988;28;20191;-72
2022/06/14 02:41:55;;;;;;;12.57;9.93;;;;;;;18.29;76.63;96910.91;5048648;28;20193;-72
2022/06/14 02:44:38;;;;;;;13.33;10.70;;;;;;;18.09;77.67;96909.88;5049366;28;20240;-71
2022/06/14 02:47:22;;;;;;;12.93;10.33;;;;;;;18.21;77.29;96915.94;5049825;28;20199;-70
2022/06/14 02:50:04;;;;;;;12.07;10.40;;;;;;;18.34;76.77;96919.25;5048177;28;20187;-73
2022/06/14 02:52:41;;;;;;;14.43;10.23;;;;;;;18.46;76.15;96913.94;5049734;28;20245;-72
2022/06/14 02:55:47;;;;;;;14.23;10.30;;;;;;;18.72;75.00;96914.47;5049236;28;20196;-73
2022/06/14 02:58:28;;;;;;;12.73;9.63;;;;;;;18.86;74.23;96911.56;5047924;28;20211;-72
2022/06/14 03:01:05;;;;;;;14.50;10.23;;;;;;;18.58;74.93;96912.94;5050316;28;20215;-71
2022/06/14 03:03:38;;;;;;;14.60;10.40;;;;;;;18.40;75.72;96913.53;5048765;28;20286;-71
2022/06/14 03:06:05;;;;;;;13.87;11.27;;;;;;;18.23;76.76;96925.34;5048731;28;20245;-71
2022/06/14 03:09:02;;;;;;;13.97;11.13;;;;;;;18.06;77.36;96909.25;5049611;28;20286;-71
2022/06/14 03:11:47;;;;;;;11.83;10.20;;;;;;;17.82;78.57;96904.13;5047809;28;20195;-71
2022/06/14 03:14:45;;;;;;;13.43;10.70;;;;;;;17.81;78.38;96911.16;5049494;28;20269;-71
2022/06/14 03:17:17;;;;;;;13.60;11.30;;;;;;;17.71;78.95;96912.81;5015186;28;20666;-70
2022/06/14 03:20:16;;;;;;;12.57;10.23;;;;;;;17.78;78.49;96905.31;5047807;28;20249;-72
2022/06/14 03:23:17;;;;;;;13.17;10.50;;;;;;;17.70;78.80;96912.94;5037621;28;20337;-72
2022/06/14 03:26:18;;;;;;;13.53;10.20;;;;;;;17.98;77.57;96909.84;5049225;28;20221;-71
2022/06/14 03:28:55;;;;;;;14.30;10.90;;;;;;;17.85;77.99;96906.50;5047377;28;20669;-72
2022/06/14 03:31:34;;;;;;;15.33;11.60;;;;;;;17.84;78.26;96907.47;5031763;28;20182;-72
2022/06/14 03:34:15;;;;;;;18.60;12.27;;;;;;;17.73;78.71;96907.44;5051868;28;20199;-72
2022/06/14 03:36:42;;;;;;;13.97;10.97;;;;;;;17.85;78.08;96915.19;5057119;28;20312;-72
2022/06/14 03:39:14;;;;;;;15.00;11.83;;;;;;;17.83;78.26;96906.63;5051706;28;20196;-71
2022/06/14 03:41:48;;;;;;;13.87;11.70;;;;;;;17.95;77.36;96896.16;5062710;28;20580;-71
2022/06/14 03:44:18;;;;;;;14.00;11.47;;;;;;;18.16;77.09;96897.94;5081855;28;20233;-70
2022/06/14 03:47:08;;;;;;;14.60;11.47;;;;;;;18.64;75.15;96916.88;5075025;28;20200;-71
2022/06/14 03:49:38;;;;;;;11.67;10.47;;;;;;;19.02;73.04;96911.97;5050798;28;20188;-72
2022/06/14 03:52:24;;;;;;;;;;;;;;;19.58;70.63;96917.03;5070323;28;20220;-72
2022/06/14 03:55:19;;;;;;;;;;;;;;;19.84;69.54;96910.41;5068205;28;19928;-71
2022/06/14 03:58:12;;;;;;;;;;;;;;;20.10;67.94;96906.38;5065335;28;20453;-71
2022/06/14 04:00:54;;;;;;;;;;;;;;;20.17;66.99;96918.84;5066269;28;20011;-71
2022/06/14 04:03:27;;;;;;;;;;;;;;;20.31;67.04;96919.50;5068201;28;19946;-71
2022/06/14 04:05:54;;;;;;;;;;;;;;;20.56;66.61;96919.88;5062212;28;19970;-72
2022/06/14 04:08:24;;;;;;;;;;;;;;;20.78;66.33;96918.81;5050019;28;20110;-71
2022/06/14 04:11:07;;;;;;;;;;;;;;;20.97;65.73;96924.13;5047804;28;19924;-73
2022/06/14 04:13:45;;;;;;;;;;;;;;;21.20;65.19;96922.94;5049069;28;19960;-72
2022/06/14 04:16:12;;;;;;;;;;;;;;;21.71;63.91;96930.53;5047124;28;20287;-72
2022/06/14 04:18:46;;;;;;;;;;;;;;;22.36;61.81;96927.88;5048652;28;19927;-72
2022/06/14 04:21:32;;;;;;;;;;;;;;;22.87;61.32;96937.94;5047690;28;20011;-72
2022/06/14 04:24:17;;;;;;;;;;;;;;;22.96;59.77;96930.91;5047470;28;19920;-72
2022/06/14 04:26:48;;;;;;;;;;;;;;;22.92;59.84;96932.19;5048740;28;19978;-72
2022/06/14 04:29:21;;;;;;;;;;;;;;;22.57;60.61;96925.00;5046869;28;19966;-73
2022/06/14 04:31:51;;;;;;;;;;;;;;;22.87;60.62;96932.66;5046644;28;20450;-73
2022/06/14 04:34:50;;;;;;;;;;;;;;;22.47;61.35;96937.41;5047703;28;19920;-73
2022/06/14 04:37:27;;;;;;;;;;;;;;;22.22;63.36;96935.41;4987293;28;20358;-73
2022/06/14 04:39:57;;;;;;;;;;;;;;;22.35;63.05;96931.50;5015998;28;19927;-72
2022/06/14 04:42:44;;;;;;;;;;;;;;;22.30;62.64;96928.44;5014264;28;19943;-72
2022/06/14 04:45:15;;;;;;;;;;;;;;;22.21;63.06;96931.97;5048505;28;20422;-72
2022/06/14 04:47:49;;;;;;;;;;;;;;;22.33;63.07;96941.38;5048054;28;19921;-72
2022/06/14 04:50:24;;;;;;;;;;;;;;;22.76;61.94;96934.66;5046874;28;20369;-73
2022/06/14 04:52:53;;;;;;;;;;;;;;;22.82;61.63;96932.25;5047967;28;19920;-72
2022/06/14 04:55:30;;;;;;;;;;;;;;;23.18;60.84;96935.78;5029045;28;19928;-72
2022/06/14 04:58:15;;;;;;;;;;;;;;;23.18;61.11;96947.19;5048658;28;20571;-71
2022/06/14 05:00:46;;;;;;;;;;;;;;;23.24;61.38;96935.19;5014894;28;20384;-72
2022/06/14 05:03:20;;;;;;;;;;;;;;;23.68;60.44;96936.91;5046748;28;20434;-72
2022/06/14 05:05:54;;;;;;;;;;;;;;;23.84;59.59;96944.16;5030716;28;19921;-72
2022/06/14 05:08:36;;;;;;;;;;;;;;;23.49;60.77;96947.69;5046547;28;20375;-71
2022/06/14 05:11:06;;;;;;;;;;;;;;;23.68;59.64;96947.50;5029614;28;19921;-72
2022/06/14 05:13:59;;;;;;;;;;;;;;;24.01;59.61;96949.41;5030231;28;19929;-72
2022/06/14 05:16:30;;;;;;;;;;;;;;;24.06;59.37;96955.09;5015735;28;19944;-71
2022/06/14 05:19:08;;;;;;;;;;;;;;;24.10;59.68;96956.44;5029296;28;19921;-70
2022/06/14 05:21:41;;;;;;;;;;;;;;;24.32;58.78;96955.09;5047021;28;19921;-71
2022/06/14 05:24:08;;;;;;;;;;;;;;;24.10;59.41;96961.75;5028857;28;19920;-71
2022/06/14 05:26:54;;;;;;;;;;;;;;;24.39;58.68;96953.47;5030091;28;19952;-72
2022/06/14 05:29:30;;;;;;;;;;;;;;;24.63;58.27;96953.59;5028281;28;19928;-72
2022/06/14 05:32:04;;;;;;;;;;;;;;;24.82;57.23;96945.44;5047650;28;19948;-72
2022/06/14 05:34:52;;;;;;;8.60;7.40;;;;;;;24.71;56.96;96950.97;5046440;28;20063;-73
2022/06/14 05:37:55;;;;;;;11.77;8.10;;;;;;;25.09;57.07;96944.34;4996111;28;20225;-72
2022/06/14 05:40:44;;;;;;;19.10;11.40;;;;;;;25.49;56.21;96954.25;5007857;28;20204;-72
2022/06/14 05:43:20;;;;;;;;;;;;;;;25.65;55.30;96951.59;5046631;28;19994;-73
2022/06/14 05:45:49;;;;;;;;;;;;;;;25.66;54.52;96963.84;5046804;28;20423;-73
2022/06/14 05:48:24;;;;;;;;;;;;;;;25.97;54.07;96958.69;5047489;28;20411;-73
2022/06/14 05:50:54;;;;;;;;;;;;;;;26.29;53.40;96954.25;5046047;28;19920;-73
2022/06/14 05:53:27;;;;;;;;;;;;;;;26.32;52.95;96955.69;5029176;28;20439;-72
2022/06/14 05:56:03;;;;;;;10.97;7.83;;;;;;;26.31;53.04;96959.38;5012559;28;20069;-72
2022/06/14 05:58:42;;;;;;;9.63;7.53;;;;;;;26.39;51.94;96944.25;5011820;28;20643;-72
2022/06/14 06:01:16;;;;;;;10.27;7.40;;;;;;;26.73;51.98;96959.91;5028976;28;20288;-72
2022/06/14 06:04:26;;;;;;;11.67;7.93;;;;;;;26.88;50.88;96962.69;5045017;28;20685;-72
2022/06/14 06:07:00;;;;;;;10.73;7.40;;;;;;;26.83;50.43;96965.84;4983386;28;20234;-72
2022/06/14 06:09:33;;;;;;;10.33;6.80;;;;;;;26.77;49.71;96971.06;5046407;28;20287;-72
2022/06/14 06:12:14;;;;;;;9.73;7.13;;;;;;;26.81;50.67;96965.19;5048433;28;20198;-72
2022/06/14 06:14:50;;;;;;;10.00;6.73;;;;;;;27.03;49.88;96966.28;5032659;28;20206;-73
2022/06/14 06:17:22;;;;;;;13.50;7.43;;;;;;;27.26;49.71;96961.84;5048248;28;20229;-72
2022/06/14 06:20:15;;;;;;;7.40;6.67;;;;;;;27.09;49.72;96966.44;5049905;28;20244;-72
2022/06/14 06:23:05;;;;;;;12.20;9.87;;;;;;;27.42;49.51;96961.78;5049649;28;20205;-72
2022/06/14 06:25:44;;;;;;;8.83;7.13;;;;;;;27.50;49.43;96958.22;5047848;28;20283;-73
2022/06/14 06:28:17;;;;;;;11.50;7.47;;;;;;;27.52;49.81;96945.56;5049961;28;20190;-74
2022/06/14 06:30:44;;;;;;;8.03;6.40;;;;;;;27.45;49.45;96957.94;5048857;28;20218;-72
2022/06/14 06:33:17;;;;;;;9.50;7.13;;;;;;;27.52;50.27;96945.56;5049152;28;20186;-72
2022/06/14 06:36:03;;;;;;;9.43;7.00;;;;;;;27.43;49.34;96946.66;5049996;28;20289;-72
2022/06/14 06:38:46;;;;;;;9.70;6.97;;;;;;;27.62;48.87;96962.13;5047600;28;20692;-72
2022/06/14 06:44:15;;;;;;;8.97;7.00;;;;;;;27.74;48.96;96955.41;5049692;28;20222;-72
2022/06/14 06:46:53;;;;;;;9.13;6.97;;;;;;;27.74;49.17;96950.06;5030017;28;20190;-72
2022/06/14 06:49:29;;;;;;;9.07;6.47;;;;;;;27.66;49.34;96964.25;5049271;28;20224;-73
2022/06/14 06:52:04;;;;;;;8.13;6.20;;;;;;;27.65;48.84;96959.94;5047280;28;20185;-72
2022/06/14 06:54:40;;;;;;;7.40;5.97;;;;;;;27.65;48.58;96964.44;5048859;28;20755;-72
2022/06/14 06:57:19;;;;;;;10.13;6.00;;;;;;;27.67;49.27;96949.13;5049187;28;20218;-72
2022/06/14 06:59:57;;;;;;;11.50;6.30;;;;;;;27.75;49.04;96957.03;5047146;28;20190;-72
2022/06/14 07:02:42;;;;;;;7.73;6.83;;;;;;;27.60;49.18;96966.78;5031252;28;20198;-72
2022/06/14 07:05:14;;;;;;;14.20;8.20;;;;;;;27.88;48.93;96959.94;5013675;28;20273;-72
2022/06/14 07:07:44;;;;;;;7.43;6.37;;;;;;;27.79;48.24;96951.19;5030157;28;20190;-72
2022/06/14 07:10:18;;;;;;;8.07;6.33;;;;;;;27.99;48.26;96964.84;5049073;28;20201;-73
2022/06/14 07:12:58;;;;;;;9.03;5.80;;;;;;;27.47;47.05;96926.66;5047137;28;20190;-73
2022/06/14 07:15:37;;;;;;;8.60;5.80;;;;;;;27.26;48.05;96967.16;5030734;28;20193;-72
2022/06/14 07:18:15;;;;;;;6.17;5.43;;;;;;;27.16;48.62;96962.03;5047576;28;20718;-71
2022/06/14 07:20:49;;;;;;;6.00;5.40;;;;;;;27.19;48.70;96969.69;5047425;28;20181;-72
2022/06/14 07:23:24;;;;;;;8.00;5.77;;;;;;;27.41;47.81;96976.06;5029847;28;20204;-72
2022/06/14 07:25:58;;;;;;;6.70;5.80;;;;;;;27.45;46.79;96956.09;5046795;28;20240;-71
2022/06/14 07:28:34;;;;;;;7.33;5.73;;;;;;;27.70;47.84;96973.53;5048169;28;20672;-72
2022/06/14 07:31:07;;;;;;;6.10;5.37;;;;;;;27.60;47.08;96969.44;5047281;28;20656;-72
2022/06/14 07:33:36;;;;;;;5.47;4.67;;;;;;;27.58;47.56;96964.31;5012632;28;20222;-72
2022/06/14 07:36:21;;;;;;;7.13;5.80;;;;;;;27.67;48.88;96968.59;5048603;28;20198;-72
2022/06/14 07:39:07;;;;;;;9.87;6.50;;;;;;;27.82;48.46;96971.31;5046851;28;20236;-72
2022/06/14 07:41:55;;;;;;;6.47;5.80;;;;;;;27.79;46.76;96955.69;5048671;28;20201;-72
2022/06/14 07:44:48;;;;;;;8.70;5.50;;;;;;;27.82;46.25;96961.47;5030280;28;20186;-71
2022/06/14 07:48:01;;;;;;;7.63;5.20;;;;;;;27.56;46.33;96941.53;5028982;28;20613;-72
2022/06/14 07:50:41;;;;;;;7.43;5.30;;;;;;;27.93;47.17;96965.53;4950008;28;20200;-71
2022/06/14 07:53:18;;;;;;;6.63;5.43;;;;;;;27.79;44.61;96968.97;4966363;28;20188;-72
2022/06/14 07:55:50;;;;;;;7.80;4.90;;;;;;;27.96;45.37;96978.53;5019618;28;20201;-72
2022/06/14 07:58:51;;;;;;;5.97;5.37;;;;;;;27.95;45.29;96966.19;5029687;28;20256;-72
2022/06/14 08:01:45;;;;;;;5.63;5.00;;;;;;;28.00;44.22;96977.16;5009489;28;20691;-72
2022/06/14 08:04:21;;;;;;;5.20;4.70;;;;;;;27.98;43.24;96966.72;5045665;28;20662;-73
2022/06/14 08:06:55;;;;;;;5.37;4.80;;;;;;;27.80;44.53;96973.31;5030160;28;20228;-72
2022/06/14 08:09:30;;;;;;;5.63;4.50;;;;;;;27.86;44.03;96975.25;5045998;28;20602;-72
2022/06/14 08:12:00;;;;;;;5.03;4.60;;;;;;;27.83;44.50;96973.78;5047744;28;20201;-72
2022/06/14 08:14:58;;;;;;;5.37;4.70;;;;;;;27.94;44.47;96988.50;5047234;28;20190;-72
2022/06/14 08:17:36;;;;;;;3.97;3.67;;;;;;;27.88;44.23;96984.69;5011373;28;20226;-72
2022/06/14 08:20:26;;;;;;;5.97;3.87;;;;;;;27.78;44.90;96989.44;5047176;28;20194;-72
2022/06/14 08:22:59;;;;;;;4.60;4.20;;;;;;;28.01;44.88;96989.47;5046210;28;20714;-72
2022/06/14 08:25:33;;;;;;;4.70;4.20;;;;;;;27.92;43.78;96985.19;5046272;28;20317;-71
2022/06/14 08:28:12;;;;;;;7.77;4.77;;;;;;;27.93;44.47;96994.81;5029528;28;20647;-72
2022/06/14 08:30:56;;;;;;;4.10;3.70;;;;;;;27.75;44.12;96984.50;5027576;28;20583;-72
2022/06/14 08:33:47;;;;;;;6.77;3.80;;;;;;;27.85;44.11;96985.06;5028868;28;20285;-72
2022/06/14 08:36:21;;;;;;;4.30;3.80;;;;;;;27.80;43.32;96992.75;5007595;28;20256;-71
2022/06/14 08:38:55;;;;;;;6.03;3.90;;;;;;;27.87;43.47;96977.75;5011297;28;20224;-72
2022/06/14 08:41:44;;;;;;;6.33;4.40;;;;;;;27.94;44.67;96988.50;5047408;28;20652;-73
2022/06/14 08:44:18;;;;;;;3.97;3.67;;;;;;;28.16;44.23;96990.34;5045512;28;20178;-72
2022/06/14 08:47:35;;;;;;;6.93;3.83;;;;;;;28.24;43.33;96982.28;5028650;28;20288;-73
2022/06/14 08:50:21;;;;;;;5.00;4.20;;;;;;;28.33;42.58;96983.84;5021098;28;20197;-72
2022/06/14 08:53:03;;;;;;;5.33;3.80;;;;;;;28.03;44.21;96976.78;5010791;28;20208;-71
2022/06/14 08:56:07;;;;;;;4.53;3.87;;;;;;;27.94;43.88;96977.84;5028361;28;20221;-74
2022/06/14 08:58:37;;;;;;;4.97;4.30;;;;;;;27.87;45.27;96980.41;5046890;28;20222;-74
2022/06/14 09:01:27;;;;;;;4.47;3.60;;;;;;;28.02;44.05;96986.63;5027060;28;20190;-72
2022/06/14 09:04:23;;;;;;;4.47;3.40;;;;;;;28.12;42.80;96975.72;5046344;28;20273;-73
2022/06/14 09:07:12;;;;;;;3.60;3.13;;;;;;;28.02;43.76;96977.81;5030848;28;20194;-73
2022/06/14 09:09:57;;;;;;;3.80;3.50;;;;;;;28.10;43.83;96983.06;5045020;28;20657;-73
2022/06/14 09:12:25;;;;;;;4.70;3.60;;;;;;;28.23;43.64;96972.63;5029143;28;20314;-73
2022/06/14 09:14:58;;;;;;;4.37;3.70;;;;;;;28.44;44.06;96964.75;5011762;28;20209;-73
2022/06/14 09:17:49;;;;;;;3.60;3.30;;;;;;;27.97;43.42;96961.53;5045286;28;20188;-72
2022/06/14 09:20:43;;;;;;;4.70;3.60;;;;;;;28.16;43.55;96972.53;5046703;28;20269;-73
2022/06/14 09:23:35;;;;;;;4.60;3.40;;;;;;;28.00;43.20;96963.84;5045625;28;20198;-71
2022/06/14 09:26:18;;;;;;;3.73;3.43;;;;;;;28.20;43.14;96970.31;5045300;28;20218;-72
2022/06/14 09:28:48;;;;;;;7.07;3.57;;;;;;;28.45;42.54;96971.75;5046641;28;20186;-72
2022/06/14 09:31:30;;;;;;;4.37;3.70;;;;;;;28.50;42.46;96956.00;5027081;28;20198;-73
2022/06/14 09:34:31;;;;;;;3.70;3.40;;;;;;;28.46;42.72;96943.25;5046834;28;20252;-72
2022/06/14 09:37:28;;;;;;;4.03;3.63;;;;;;;28.59;44.23;96936.28;5046660;28;20213;-72
2022/06/14 09:40:28;;;;;;;4.83;3.47;;;;;;;28.54;44.63;96951.16;5045471;28;20190;-71
2022/06/14 09:43:11;;;;;;;4.30;3.33;;;;;;;28.50;43.90;96953.34;5028381;28;20186;-73
2022/06/14 09:46:01;;;;;;;4.60;3.50;;;;;;;28.22;42.97;96948.81;5048406;28;20206;-72
2022/06/14 09:49:04;;;;;;;4.57;3.73;;;;;;;28.16;43.83;96955.72;5049259;28;20190;-72
2022/06/14 09:51:40;;;;;;;4.87;3.53;;;;;;;28.09;42.96;96976.91;5050610;28;20235;-72
2022/06/14 09:54:37;;;;;;;5.03;2.90;;;;;;;27.96;42.73;96944.75;5015201;28;20198;-73
2022/06/14 09:57:22;;;;;;;5.10;3.63;;;;;;;28.40;42.47;96947.47;5048731;28;20186;-73
2022/06/14 10:00:21;;;;;;;5.03;3.43;;;;;;;28.31;42.77;96961.91;5050014;28;20190;-73
2022/06/14 10:03:33;;;;;;;3.43;3.13;;;;;;;28.12;41.33;96955.25;5016021;28;20202;-71
2022/06/14 10:06:16;;;;;;;5.77;3.60;;;;;;;28.28;42.85;96956.91;5030823;28;20186;-73
2022/06/14 10:08:59;;;;;;;;;;;;;;;28.34;42.48;96966.84;5032668;28;20213;-74
2022/06/14 10:11:35;;;;;;;;;;;;;;;28.11;42.16;96963.41;5050591;28;19928;-73
2022/06/14 10:14:08;;;;;;;5.33;3.50;;;;;;;28.13;42.66;96969.41;5048451;28;20061;-71
2022/06/14 10:16:49;;;;;;;4.80;3.20;;;;;;;28.22;40.96;96964.81;5015549;28;20252;-72
2022/06/14 10:20:00;;;;;;;3.73;3.17;;;;;;;28.29;41.69;96963.91;5048172;28;20245;-72
2022/06/14 10:22:39;;;;;;;3.67;3.27;;;;;;;28.21;41.41;96953.34;5039631;28;20275;-72
2022/06/14 10:25:16;;;;;;;4.43;3.40;;;;;;;28.29;41.29;96965.75;5031752;28;20233;-72
2022/06/14 10:28:17;;;;;;;3.57;3.27;;;;;;;28.18;41.62;96969.69;5048357;28;20201;-73
2022/06/14 10:30:57;;;;;;;4.73;3.20;;;;;;;28.18;41.82;96940.38;5031393;28;20285;-73
2022/06/14 10:33:43;;;;;;;6.13;3.27;;;;;;;28.39;41.59;96945.00;5049577;28;20189;-73
2022/06/14 10:36:28;;;;;;;3.83;3.37;;;;;;;28.43;40.97;96952.44;5047772;28;20186;-72
2022/06/14 10:39:22;;;;;;;5.13;3.20;;;;;;;28.08;41.70;96961.13;5049248;28;20619;-73
2022/06/14 10:42:08;;;;;;;4.40;3.07;;;;;;;28.12;41.23;96949.09;5013031;28;20285;-72
2022/06/14 10:45:03;;;;;;;3.33;3.03;;;;;;;28.13;41.24;96953.44;5047845;28;20276;-73
2022/06/14 10:47:34;;;;;;;3.60;2.70;;;;;;;28.07;40.62;96951.47;5049029;28;20836;-72
2022/06/14 10:50:30;;;;;;;3.50;3.17;;;;;;;27.96;40.49;96954.56;5048837;28;20197;-72
2022/06/14 10:53:15;;;;;;;4.50;3.13;;;;;;;28.05;40.31;96958.81;5048342;28;20577;-73
2022/06/14 10:55:58;;;;;;;4.33;3.33;;;;;;;27.94;41.10;96954.72;5049577;28;20681;-73
2022/06/14 10:59:03;;;;;;;3.17;2.93;;;;;;;27.85;41.32;96946.97;5048069;28;20309;-72
2022/06/14 11:02:32;;;;;;;3.80;3.40;;;;;;;27.53;42.12;96937.44;5047850;28;20186;-72
2022/06/14 11:05:34;;;;;;;5.10;3.40;;;;;;;27.61;42.99;96941.84;4947844;28;20295;-72
2022/06/14 11:08:15;;;;;;;4.80;4.10;;;;;;;27.47;42.90;96935.44;5048874;28;20178;-72
2022/06/14 11:11:10;;;;;;;3.87;3.20;;;;;;;27.28;43.11;96954.53;5028975;28;20205;-72
2022/06/14 11:14:01;;;;;;;3.70;3.40;;;;;;;27.33;42.82;96947.66;5030662;28;20204;-72
2022/06/14 11:16:41;;;;;;;4.57;3.50;;;;;;;27.41;43.45;96940.69;5030662;28;20740;-73
2022/06/14 11:19:31;;;;;;;5.83;3.53;;;;;;;27.35;44.64;96958.97;5029424;28;20229;-72
2022/06/14 11:22:07;;;;;;;6.77;3.57;;;;;;;27.22;45.65;96950.72;5048538;28;20213;-72
2022/06/14 11:24:45;;;;;;;5.53;3.50;;;;;;;27.18;45.20;96952.06;5048446;28;20232;-72
2022/06/14 11:27:21;;;;;;;4.93;3.20;;;;;;;27.18;44.38;96949.41;5029114;28;20185;-74
2022/06/14 11:30:00;;;;;;;5.10;3.77;;;;;;;27.04;44.92;96944.84;5048805;28;20213;-71
2022/06/14 11:32:34;;;;;;;5.33;3.20;;;;;;;27.16;44.79;96934.66;5047101;28;20186;-73
2022/06/14 11:35:37;;;;;;;3.90;3.60;;;;;;;27.10;46.00;96938.00;5048315;28;20190;-73
2022/06/14 11:38:19;;;;;;;7.43;3.53;;;;;;;27.12;45.78;96943.97;5010285;28;20205;-72
2022/06/14 11:40:52;;;;;;;5.20;3.87;;;;;;;27.25;45.01;96930.91;5047090;28;20726;-72
2022/06/14 11:43:39;;;;;;;5.23;4.23;;;;;;;27.16;45.17;96922.16;5048898;28;20267;-72
2022/06/14 11:46:38;;;;;;;4.90;3.40;;;;;;;27.37;45.87;96917.06;5013883;28;20201;-71
2022/06/14 11:49:38;;;;;;;4.03;3.57;;;;;;;27.13;46.04;96919.88;5046669;28;20251;-72
2022/06/14 11:52:23;;;;;;;6.47;3.57;;;;;;;27.24;45.06;96911.47;5030264;28;20186;-72
2022/06/14 11:55:26;;;;;;;3.40;3.10;;;;;;;27.25;45.16;96906.97;5047999;28;20196;-72
2022/06/14 11:58:08;;;;;;;5.70;3.40;;;;;;;27.41;43.74;96900.78;5028436;28;20224;-71
2022/06/14 12:00:48;;;;;;;7.47;3.90;;;;;;;27.39;44.40;96919.53;5048097;28;20833;-72
2022/06/14 12:03:29;;;;;;;3.60;3.30;;;;;;;27.15;44.24;96912.53;5047952;28;20200;-71
2022/06/14 12:06:27;;;;;;;4.57;3.33;;;;;;;27.16;44.66;96922.16;5046820;28;20193;-71
2022/06/14 12:09:22;;;;;;;4.10;3.37;;;;;;;26.90;45.57;96889.75;5047892;28;20552;-71
2022/06/14 12:12:35;;;;;;;6.17;3.67;;;;;;;27.25;44.93;96931.75;5047211;28;20198;-72
2022/06/14 12:15:13;;;;;;;3.93;3.53;;;;;;;27.45;45.60;96928.66;4985712;28;20194;-73
2022/06/14 12:17:55;;;;;;;4.63;3.33;;;;;;;27.35;45.71;96919.09;5030304;28;20205;-73
2022/06/14 12:20:28;;;;;;;6.10;3.80;;;;;;;27.57;45.99;96925.41;5047383;28;20189;-73
2022/06/14 12:23:33;;;;;;;4.63;3.57;;;;;;;27.49;46.09;96936.13;5029164;28;20198;-71
2022/06/14 12:29:13;;;;;;;5.53;3.70;;;;;;;27.67;46.68;96933.16;5046795;28;20228;-72
2022/06/14 12:31:49;;;;;;;5.43;3.73;;;;;;;27.50;46.38;96936.94;5046564;28;20194;-72
2022/06/14 12:34:29;;;;;;;3.90;3.60;;;;;;;27.50;45.32;96936.94;5030642;28;20186;-72
2022/06/14 12:37:15;;;;;;;7.23;3.83;;;;;;;27.50;45.45;96936.94;5031771;28;20328;-72
2022/06/14 12:39:49;;;;;;;3.97;3.37;;;;;;;27.55;45.84;96935.41;5057454;28;20279;-72
2022/06/14 12:42:37;;;;;;;4.93;3.97;;;;;;;27.65;44.81;96951.13;5059191;28;20670;-72
2022/06/14 12:45:19;;;;;;;4.67;3.70;;;;;;;27.63;45.31;96926.53;5010362;28;20197;-72
2022/06/14 12:47:53;;;;;;;5.70;4.20;;;;;;;27.95;45.48;96958.19;5010296;28;20190;-72
2022/06/14 12:50:30;;;;;;;3.57;3.27;;;;;;;27.51;45.64;96902.19;5008203;28;20252;-71
2022/06/14 12:53:02;;;;;;;6.23;3.97;;;;;;;27.88;46.04;96943.97;5041260;28;20215;-72
2022/06/14 12:55:36;;;;;;;7.70;3.93;;;;;;;28.06;45.29;96968.47;5045508;28;20197;-73
2022/06/14 12:58:16;;;;;;;4.80;3.20;;;;;;;27.83;45.81;96938.34;5035091;28;20628;-72
2022/06/14 13:01:27;;;;;;;3.80;3.50;;;;;;;27.55;45.44;96921.28;5035710;28;20206;-72